sensor_id;sensor_type;location;lat;lon;timestamp;pressure;altitude;pressure_sealevel;temperature;humidity
32237;BME280;18726;44.732;10.550;2023-02-20T00:00:38;101975.56;;;7.38;100.00
32237;BME280;18726;44.732;10.550;2023-02-20T00:03:42;101967.97;;;7.40;100.00
32237;BME280;18726;44.732;10.550;2023-02-20T00:06:45;101968.78;;;7.40;100.00
32237;BME280;18726;44.732;10.550;2023-02-20T00:09:49;101970.81;;;7.49;100.00
32237;BME280;18726;44.732;10.550;2023-02-20T00:12:53;101984.75;;;7.56;100.00
32237;BME280;18726;44.732;10.550;2023-02-20T00:15:57;101981.50;;;8.51;100.00
32237;BME280;18726;44.732;10.550;2023-02-20T00:19:01;101968.66;;;8.43;100.00
32237;BME280;18726;44.732;10.550;2023-02-20T00:22:04;101975.00;;;8.79;100.00
32237;BME280;18726;44.732;10.550;2023-02-20T00:25:08;101977.00;;;9.37;100.00
32237;BME280;18726;44.732;10.550;2023-02-20T00:28:12;101970.47;;;9.61;100.00
32237;BME280;18726;44.732;10.550;2023-02-20T00:31:16;101983.72;;;9.62;100.00
32237;BME280;18726;44.732;10.550;2023-02-20T00:34:25;101987.50;;;9.75;100.00
32237;BME280;18726;44.732;10.550;2023-02-20T00:37:29;101996.38;;;9.89;100.00
32237;BME280;18726;44.732;10.550;2023-02-20T00:40:33;101998.75;;;10.13;100.00
32237;BME280;18726;44.732;10.550;2023-02-20T00:43:39;102004.94;;;10.05;100.00
32237;BME280;18726;44.732;10.550;2023-02-20T00:46:43;102008.81;;;9.68;100.00
32237;BME280;18726;44.732;10.550;2023-02-20T00:49:49;101999.06;;;9.44;100.00
32237;BME280;18726;44.732;10.550;2023-02-20T00:52:53;101994.44;;;9.09;100.00
32237;BME280;18726;44.732;10.550;2023-02-20T00:55:56;102000.97;;;8.67;100.00
32237;BME280;18726;44.732;10.550;2023-02-20T00:59:00;102000.31;;;8.29;100.00
32237;BME280;18726;44.732;10.550;2023-02-20T01:02:05;101992.97;;;8.16;100.00
32237;BME280;18726;44.732;10.550;2023-02-20T01:05:09;101988.53;;;8.52;100.00
32237;BME280;18726;44.732;10.550;2023-02-20T01:08:12;101993.94;;;9.07;100.00
32237;BME280;18726;44.732;10.550;2023-02-20T01:11:19;101999.09;;;9.31;100.00
32237;BME280;18726;44.732;10.550;2023-02-20T01:14:23;102009.22;;;9.75;100.00
32237;BME280;18726;44.732;10.550;2023-02-20T01:17:27;102009.38;;;10.01;100.00
32237;BME280;18726;44.732;10.550;2023-02-20T01:20:32;102011.44;;;9.73;100.00
32237;BME280;18726;44.732;10.550;2023-02-20T01:23:35;102011.44;;;9.37;100.00
32237;BME280;18726;44.732;10.550;2023-02-20T01:26:43;102013.09;;;8.97;100.00
32237;BME280;18726;44.732;10.550;2023-02-20T01:29:48;102003.16;;;8.37;100.00
32237;BME280;18726;44.732;10.550;2023-02-20T01:32:51;102011.44;;;7.95;100.00
32237;BME280;18726;44.732;10.550;2023-02-20T01:35:55;102012.28;;;7.58;100.00
32237;BME280;18726;44.732;10.550;2023-02-20T01:38:59;102018.69;;;8.32;100.00
32237;BME280;18726;44.732;10.550;2023-02-20T01:42:05;102017.66;;;8.88;100.00
32237;BME280;18726;44.732;10.550;2023-02-20T01:48:22;102018.78;;;9.36;100.00
32237;BME280;18726;44.732;10.550;2023-02-20T01:51:26;102016.31;;;9.12;100.00
32237;BME280;18726;44.732;10.550;2023-02-20T01:54:33;102016.63;;;8.56;100.00
32237;BME280;18726;44.732;10.550;2023-02-20T01:57:48;102013.78;;;8.01;100.00
32237;BME280;18726;44.732;10.550;2023-02-20T02:00:55;102021.22;;;8.42;100.00
32237;BME280;18726;44.732;10.550;2023-02-20T02:04:03;102015.47;;;7.97;100.00
32237;BME280;18726;44.732;10.550;2023-02-20T02:07:10;102022.75;;;7.45;100.00
32237;BME280;18726;44.732;10.550;2023-02-20T02:10:27;102028.47;;;7.44;100.00
32237;BME280;18726;44.732;10.550;2023-02-20T02:13:36;102023.75;;;7.12;100.00
32237;BME280;18726;44.732;10.550;2023-02-20T02:34:29;102032.50;;;7.23;100.00
32237;BME280;18726;44.732;10.550;2023-02-20T02:37:47;102035.44;;;7.07;100.00
32237;BME280;18726;44.732;10.550;2023-02-20T02:44:12;102048.66;;;7.09;100.00
32237;BME280;18726;44.732;10.550;2023-02-20T02:50:47;102056.88;;;7.41;100.00
32237;BME280;18726;44.732;10.550;2023-02-20T02:54:12;102066.97;;;7.55;100.00
32237;BME280;18726;44.732;10.550;2023-02-20T02:57:23;102071.50;;;7.59;100.00
32237;BME280;18726;44.732;10.550;2023-02-20T03:00:44;102080.56;;;7.87;100.00
32237;BME280;18726;44.732;10.550;2023-02-20T03:03:51;102065.19;;;8.80;100.00
32237;BME280;18726;44.732;10.550;2023-02-20T03:07:04;102072.22;;;8.81;100.00
32237;BME280;18726;44.732;10.550;2023-02-20T03:10:13;102090.06;;;8.55;100.00
32237;BME280;18726;44.732;10.550;2023-02-20T03:13:24;102093.97;;;8.30;100.00
32237;BME280;18726;44.732;10.550;2023-02-20T03:20:29;102098.91;;;7.71;100.00
32237;BME280;18726;44.732;10.550;2023-02-20T03:23:37;102104.16;;;7.63;100.00
32237;BME280;18726;44.732;10.550;2023-02-20T03:26:43;102103.53;;;7.71;100.00
32237;BME280;18726;44.732;10.550;2023-02-20T03:29:51;102108.47;;;7.64;100.00
32237;BME280;18726;44.732;10.550;2023-02-20T03:33:08;102115.34;;;7.56;100.00
32237;BME280;18726;44.732;10.550;2023-02-20T03:36:58;102103.94;;;7.40;100.00
32237;BME280;18726;44.732;10.550;2023-02-20T03:40:22;102108.25;;;7.41;100.00
32237;BME280;18726;44.732;10.550;2023-02-20T03:43:47;102108.03;;;7.57;100.00
32237;BME280;18726;44.732;10.550;2023-02-20T03:46:52;102113.88;;;7.64;100.00
32237;BME280;18726;44.732;10.550;2023-02-20T03:50:00;102124.66;;;7.69;100.00
32237;BME280;18726;44.732;10.550;2023-02-20T03:53:23;102131.59;;;7.75;100.00
32237;BME280;18726;44.732;10.550;2023-02-20T03:56:31;102123.38;;;7.80;100.00
32237;BME280;18726;44.732;10.550;2023-02-20T03:59:41;102130.00;;;7.93;100.00
32237;BME280;18726;44.732;10.550;2023-02-20T04:02:50;102137.88;;;7.89;100.00
32237;BME280;18726;44.732;10.550;2023-02-20T04:05:59;102140.59;;;7.89;100.00
32237;BME280;18726;44.732;10.550;2023-02-20T04:09:16;102141.28;;;8.51;100.00
32237;BME280;18726;44.732;10.550;2023-02-20T04:12:24;102143.41;;;8.54;100.00
32237;BME280;18726;44.732;10.550;2023-02-20T04:15:30;102136.66;;;8.98;100.00
32237;BME280;18726;44.732;10.550;2023-02-20T04:18:35;102135.06;;;9.24;100.00
32237;BME280;18726;44.732;10.550;2023-02-20T04:21:47;102138.94;;;8.77;100.00
32237;BME280;18726;44.732;10.550;2023-02-20T04:24:59;102138.09;;;8.30;100.00
32237;BME280;18726;44.732;10.550;2023-02-20T04:28:07;102140.16;;;8.01;100.00
32237;BME280;18726;44.732;10.550;2023-02-20T04:31:21;102135.97;;;7.90;100.00
32237;BME280;18726;44.732;10.550;2023-02-20T04:34:26;102134.31;;;7.94;100.00
32237;BME280;18726;44.732;10.550;2023-02-20T04:37:30;102135.25;;;8.22;100.00
32237;BME280;18726;44.732;10.550;2023-02-20T04:40:36;102141.22;;;8.37;100.00
32237;BME280;18726;44.732;10.550;2023-02-20T04:43:39;102147.44;;;8.38;100.00
32237;BME280;18726;44.732;10.550;2023-02-20T04:46:43;102153.28;;;8.77;100.00
32237;BME280;18726;44.732;10.550;2023-02-20T04:49:48;102152.75;;;9.22;100.00
32237;BME280;18726;44.732;10.550;2023-02-20T04:52:57;102159.09;;;9.44;100.00
32237;BME280;18726;44.732;10.550;2023-02-20T04:56:01;102156.97;;;9.41;100.00
32237;BME280;18726;44.732;10.550;2023-02-20T05:03:09;102170.50;;;9.69;100.00
32237;BME280;18726;44.732;10.550;2023-02-20T05:06:12;102181.63;;;9.95;100.00
32237;BME280;18726;44.732;10.550;2023-02-20T05:09:16;102180.47;;;9.73;100.00
32237;BME280;18726;44.732;10.550;2023-02-20T05:12:19;102180.81;;;9.94;100.00
32237;BME280;18726;44.732;10.550;2023-02-20T05:15:24;102177.63;;;10.14;100.00
32237;BME280;18726;44.732;10.550;2023-02-20T05:18:29;102180.16;;;10.25;100.00
32237;BME280;18726;44.732;10.550;2023-02-20T05:21:33;102187.63;;;10.19;100.00
32237;BME280;18726;44.732;10.550;2023-02-20T05:24:55;102186.38;;;10.39;100.00
32237;BME280;18726;44.732;10.550;2023-02-20T05:27:59;102185.59;;;10.47;100.00
32237;BME280;18726;44.732;10.550;2023-02-20T05:31:02;102194.97;;;10.41;100.00
32237;BME280;18726;44.732;10.550;2023-02-20T05:34:06;102188.94;;;10.44;100.00
32237;BME280;18726;44.732;10.550;2023-02-20T05:37:10;102197.22;;;10.39;100.00
32237;BME280;18726;44.732;10.550;2023-02-20T05:40:15;102195.25;;;10.31;100.00
32237;BME280;18726;44.732;10.550;2023-02-20T05:43:19;102186.22;;;10.22;100.00
32237;BME280;18726;44.732;10.550;2023-02-20T05:46:26;102185.19;;;10.18;100.00
32237;BME280;18726;44.732;10.550;2023-02-20T05:49:30;102178.75;;;10.13;100.00
32237;BME280;18726;44.732;10.550;2023-02-20T05:52:34;102188.69;;;10.18;100.00
32237;BME280;18726;44.732;10.550;2023-02-20T05:55:38;102187.19;;;10.26;100.00
32237;BME280;18726;44.732;10.550;2023-02-20T05:58:42;102196.34;;;9.66;100.00
32237;BME280;18726;44.732;10.550;2023-02-20T06:01:48;102187.69;;;9.09;100.00
32237;BME280;18726;44.732;10.550;2023-02-20T06:04:54;102196.19;;;9.03;100.00
32237;BME280;18726;44.732;10.550;2023-02-20T06:07:58;102201.56;;;9.35;100.00
32237;BME280;18726;44.732;10.550;2023-02-20T06:11:01;102200.94;;;9.25;100.00
32237;BME280;18726;44.732;10.550;2023-02-20T06:14:06;102194.13;;;9.13;100.00
32237;BME280;18726;44.732;10.550;2023-02-20T06:17:09;102202.81;;;8.97;100.00
32237;BME280;18726;44.732;10.550;2023-02-20T06:20:13;102204.38;;;9.30;100.00
32237;BME280;18726;44.732;10.550;2023-02-20T06:23:17;102209.06;;;9.25;100.00
32237;BME280;18726;44.732;10.550;2023-02-20T06:26:21;102217.88;;;8.89;100.00
32237;BME280;18726;44.732;10.550;2023-02-20T06:29:25;102226.22;;;8.93;100.00
32237;BME280;18726;44.732;10.550;2023-02-20T06:32:29;102216.72;;;8.76;100.00
32237;BME280;18726;44.732;10.550;2023-02-20T06:35:33;102228.91;;;8.60;100.00
32237;BME280;18726;44.732;10.550;2023-02-20T06:38:37;102220.47;;;8.43;100.00
32237;BME280;18726;44.732;10.550;2023-02-20T06:41:40;102223.03;;;8.53;100.00
32237;BME280;18726;44.732;10.550;2023-02-20T06:44:44;102222.59;;;8.46;100.00
32237;BME280;18726;44.732;10.550;2023-02-20T06:47:48;102230.91;;;8.36;100.00
32237;BME280;18726;44.732;10.550;2023-02-20T06:50:51;102238.41;;;8.39;100.00
32237;BME280;18726;44.732;10.550;2023-02-20T06:53:59;102246.63;;;8.34;100.00
32237;BME280;18726;44.732;10.550;2023-02-20T06:57:03;102255.63;;;8.48;100.00
32237;BME280;18726;44.732;10.550;2023-02-20T07:00:07;102254.94;;;8.37;100.00
32237;BME280;18726;44.732;10.550;2023-02-20T07:03:12;102266.66;;;8.09;100.00
32237;BME280;18726;44.732;10.550;2023-02-20T07:06:16;102269.41;;;8.28;100.00
32237;BME280;18726;44.732;10.550;2023-02-20T07:09:19;102267.63;;;8.42;100.00
32237;BME280;18726;44.732;10.550;2023-02-20T07:12:23;102269.25;;;8.62;100.00
32237;BME280;18726;44.732;10.550;2023-02-20T07:15:27;102279.84;;;8.58;100.00
32237;BME280;18726;44.732;10.550;2023-02-20T07:18:30;102286.53;;;8.66;100.00
32237;BME280;18726;44.732;10.550;2023-02-20T07:21:34;102291.19;;;8.79;100.00
32237;BME280;18726;44.732;10.550;2023-02-20T07:24:38;102290.44;;;8.92;100.00
32237;BME280;18726;44.732;10.550;2023-02-20T07:27:44;102286.81;;;8.97;100.00
32237;BME280;18726;44.732;10.550;2023-02-20T07:30:47;102297.34;;;9.17;100.00
32237;BME280;18726;44.732;10.550;2023-02-20T07:33:51;102292.94;;;9.21;100.00
32237;BME280;18726;44.732;10.550;2023-02-20T07:36:55;102302.19;;;9.34;100.00
32237;BME280;18726;44.732;10.550;2023-02-20T07:39:58;102309.44;;;9.38;100.00
32237;BME280;18726;44.732;10.550;2023-02-20T07:43:02;102310.63;;;9.32;100.00
32237;BME280;18726;44.732;10.550;2023-02-20T07:46:05;102301.22;;;9.43;100.00
32237;BME280;18726;44.732;10.550;2023-02-20T07:49:10;102318.00;;;9.59;100.00
32237;BME280;18726;44.732;10.550;2023-02-20T07:59:18;102313.91;;;9.89;100.00
32237;BME280;18726;44.732;10.550;2023-02-20T08:02:22;102320.38;;;9.93;100.00
32237;BME280;18726;44.732;10.550;2023-02-20T08:05:26;102318.16;;;9.81;100.00
32237;BME280;18726;44.732;10.550;2023-02-20T08:08:30;102313.81;;;9.94;100.00
32237;BME280;18726;44.732;10.550;2023-02-20T08:11:35;102315.44;;;10.23;100.00
32237;BME280;18726;44.732;10.550;2023-02-20T08:14:39;102324.09;;;10.38;100.00
32237;BME280;18726;44.732;10.550;2023-02-20T08:17:43;102327.72;;;10.34;100.00
32237;BME280;18726;44.732;10.550;2023-02-20T08:20:47;102321.34;;;10.52;100.00
32237;BME280;18726;44.732;10.550;2023-02-20T08:23:51;102321.63;;;10.87;100.00
32237;BME280;18726;44.732;10.550;2023-02-20T08:26:55;102323.59;;;11.39;100.00
32237;BME280;18726;44.732;10.550;2023-02-20T08:29:59;102318.41;;;11.52;100.00
32237;BME280;18726;44.732;10.550;2023-02-20T08:33:02;102322.25;;;11.90;100.00
32237;BME280;18726;44.732;10.550;2023-02-20T08:36:08;102318.00;;;12.15;100.00
32237;BME280;18726;44.732;10.550;2023-02-20T08:39:12;102317.59;;;12.47;100.00
32237;BME280;18726;44.732;10.550;2023-02-20T08:42:16;102317.59;;;12.56;100.00
32237;BME280;18726;44.732;10.550;2023-02-20T08:45:19;102320.19;;;12.78;100.00
32237;BME280;18726;44.732;10.550;2023-02-20T08:48:23;102323.22;;;12.85;100.00
32237;BME280;18726;44.732;10.550;2023-02-20T08:51:27;102324.38;;;12.93;100.00
32237;BME280;18726;44.732;10.550;2023-02-20T08:54:31;102319.88;;;12.97;100.00
32237;BME280;18726;44.732;10.550;2023-02-20T08:57:35;102324.34;;;13.02;100.00
32237;BME280;18726;44.732;10.550;2023-02-20T09:00:38;102326.91;;;13.07;100.00
32237;BME280;18726;44.732;10.550;2023-02-20T09:03:42;102329.47;;;13.12;100.00
32237;BME280;18726;44.732;10.550;2023-02-20T09:06:46;102323.06;;;13.25;100.00
32237;BME280;18726;44.732;10.550;2023-02-20T09:09:49;102328.63;;;13.46;100.00
32237;BME280;18726;44.732;10.550;2023-02-20T09:12:53;102323.75;;;13.60;100.00
32237;BME280;18726;44.732;10.550;2023-02-20T09:15:57;102318.88;;;13.83;100.00
32237;BME280;18726;44.732;10.550;2023-02-20T09:19:00;102329.56;;;13.97;100.00
32237;BME280;18726;44.732;10.550;2023-02-20T09:22:04;102331.63;;;14.00;100.00
32237;BME280;18726;44.732;10.550;2023-02-20T09:25:10;102321.81;;;14.07;100.00
32237;BME280;18726;44.732;10.550;2023-02-20T09:28:14;102326.88;;;14.17;100.00
32237;BME280;18726;44.732;10.550;2023-02-20T09:31:19;102324.91;;;14.27;100.00
32237;BME280;18726;44.732;10.550;2023-02-20T09:34:22;102324.38;;;14.33;100.00
32237;BME280;18726;44.732;10.550;2023-02-20T09:37:26;102328.00;;;14.46;100.00
32237;BME280;18726;44.732;10.550;2023-02-20T09:40:30;102326.16;;;14.59;100.00
32237;BME280;18726;44.732;10.550;2023-02-20T09:43:49;102330.97;;;14.62;100.00
32237;BME280;18726;44.732;10.550;2023-02-20T09:47:05;102327.78;;;14.60;100.00
32237;BME280;18726;44.732;10.550;2023-02-20T09:50:15;102326.50;;;14.57;100.00
32237;BME280;18726;44.732;10.550;2023-02-20T09:56:29;102329.91;;;14.54;100.00
32237;BME280;18726;44.732;10.550;2023-02-20T09:59:38;102323.47;;;14.50;100.00
32237;BME280;18726;44.732;10.550;2023-02-20T10:02:51;102320.09;;;14.53;100.00
32237;BME280;18726;44.732;10.550;2023-02-20T10:05:57;102321.91;;;14.70;100.00
32237;BME280;18726;44.732;10.550;2023-02-20T10:09:02;102313.06;;;14.85;100.00
32237;BME280;18726;44.732;10.550;2023-02-20T10:25:29;102318.06;;;16.99;100.00
32237;BME280;18726;44.732;10.550;2023-02-20T10:28:34;102320.78;;;17.86;94.29
32237;BME280;18726;44.732;10.550;2023-02-20T10:31:52;102327.75;;;17.99;90.50
32237;BME280;18726;44.732;10.550;2023-02-20T10:38:09;102325.16;;;18.96;81.39
32237;BME280;18726;44.732;10.550;2023-02-20T10:44:34;102316.81;;;19.53;77.96
32237;BME280;18726;44.732;10.550;2023-02-20T10:47:52;102320.88;;;19.60;81.34
32237;BME280;18726;44.732;10.550;2023-02-20T10:51:08;102308.25;;;19.39;78.44
32237;BME280;18726;44.732;10.550;2023-02-20T10:54:22;102315.03;;;19.65;73.10
32237;BME280;18726;44.732;10.550;2023-02-20T10:57:39;102297.13;;;19.32;80.69
32237;BME280;18726;44.732;10.550;2023-02-20T11:00:48;102310.75;;;19.90;83.51
32237;BME280;18726;44.732;10.550;2023-02-20T11:07:09;102301.91;;;20.07;81.31
32237;BME280;18726;44.732;10.550;2023-02-20T11:10:14;102286.41;;;19.50;83.46
32237;BME280;18726;44.732;10.550;2023-02-20T11:13:22;102287.06;;;19.43;82.60
32237;BME280;18726;44.732;10.550;2023-02-20T11:16:40;102284.44;;;19.28;83.35
32237;BME280;18726;44.732;10.550;2023-02-20T11:19:48;102286.22;;;19.39;86.82
32237;BME280;18726;44.732;10.550;2023-02-20T11:22:51;102268.06;;;19.58;85.63
32237;BME280;18726;44.732;10.550;2023-02-20T11:29:23;102251.63;;;19.42;84.89
32237;BME280;18726;44.732;10.550;2023-02-20T11:32:37;102258.63;;;20.11;82.35
32237;BME280;18726;44.732;10.550;2023-02-20T11:35:43;102250.59;;;19.27;76.90
32237;BME280;18726;44.732;10.550;2023-02-20T11:38:59;102253.00;;;19.78;76.88
32237;BME280;18726;44.732;10.550;2023-02-20T11:42:23;102239.84;;;19.94;73.02
32237;BME280;18726;44.732;10.550;2023-02-20T11:45:34;102243.81;;;19.97;74.24
32237;BME280;18726;44.732;10.550;2023-02-20T11:48:37;102232.56;;;20.09;75.12
32237;BME280;18726;44.732;10.550;2023-02-20T11:52:29;102231.44;;;19.57;75.98
32237;BME280;18726;44.732;10.550;2023-02-20T11:55:33;102227.31;;;19.47;78.10
32237;BME280;18726;44.732;10.550;2023-02-20T11:58:38;102217.97;;;19.29;77.04
32237;BME280;18726;44.732;10.550;2023-02-20T12:01:43;102217.38;;;18.74;75.49
32237;BME280;18726;44.732;10.550;2023-02-20T12:05:12;102214.91;;;18.69;78.83
32237;BME280;18726;44.732;10.550;2023-02-20T12:08:43;102205.94;;;19.41;81.59
32237;BME280;18726;44.732;10.550;2023-02-20T12:11:54;102200.63;;;19.78;79.41
32237;BME280;18726;44.732;10.550;2023-02-20T12:15:00;102202.75;;;19.88;78.43
32237;BME280;18726;44.732;10.550;2023-02-20T12:18:27;102195.63;;;20.17;75.79
32237;BME280;18726;44.732;10.550;2023-02-20T12:21:43;102185.50;;;20.28;73.93
32237;BME280;18726;44.732;10.550;2023-02-20T12:28:20;102180.81;;;18.97;79.31
32237;BME280;18726;44.732;10.550;2023-02-20T12:42:04;102150.31;;;18.63;80.17
32237;BME280;18726;44.732;10.550;2023-02-20T12:49:43;102129.75;;;19.03;81.45
32237;BME280;18726;44.732;10.550;2023-02-20T12:59:27;102120.66;;;19.25;80.78
32237;BME280;18726;44.732;10.550;2023-02-20T13:02:39;102111.41;;;18.87;79.29
32237;BME280;18726;44.732;10.550;2023-02-20T13:05:48;102108.84;;;17.95;82.50
32237;BME280;18726;44.732;10.550;2023-02-20T13:12:12;102099.66;;;17.68;80.28
32237;BME280;18726;44.732;10.550;2023-02-20T13:15:53;102085.69;;;17.96;87.60
32237;BME280;18726;44.732;10.550;2023-02-20T13:22:21;102080.09;;;18.31;87.84
32237;BME280;18726;44.732;10.550;2023-02-20T13:25:46;102074.69;;;17.96;84.84
32237;BME280;18726;44.732;10.550;2023-02-20T13:28:50;102082.59;;;17.43;84.51
32237;BME280;18726;44.732;10.550;2023-02-20T13:31:56;102073.34;;;17.16;89.42
32237;BME280;18726;44.732;10.550;2023-02-20T13:42:29;102062.31;;;18.05;92.90
32237;BME280;18726;44.732;10.550;2023-02-20T13:49:03;102054.59;;;18.34;90.22
32237;BME280;18726;44.732;10.550;2023-02-20T13:55:33;102048.59;;;18.51;88.49
32237;BME280;18726;44.732;10.550;2023-02-20T13:58:37;102046.34;;;18.56;85.29
32237;BME280;18726;44.732;10.550;2023-02-20T14:05:03;102041.50;;;17.85;81.90
32237;BME280;18726;44.732;10.550;2023-02-20T14:08:15;102020.94;;;17.60;84.82
32237;BME280;18726;44.732;10.550;2023-02-20T14:11:34;102029.47;;;17.54;90.67
32237;BME280;18726;44.732;10.550;2023-02-20T14:14:41;102027.81;;;17.50;85.18
32237;BME280;18726;44.732;10.550;2023-02-20T14:17:48;102036.25;;;17.41;87.43
32237;BME280;18726;44.732;10.550;2023-02-20T14:20:58;102020.38;;;17.70;95.29
32237;BME280;18726;44.732;10.550;2023-02-20T14:27:32;102022.69;;;17.68;85.86
32237;BME280;18726;44.732;10.550;2023-02-20T14:30:36;102022.34;;;17.69;91.07
32237;BME280;18726;44.732;10.550;2023-02-20T14:33:40;102006.22;;;17.68;90.04
32237;BME280;18726;44.732;10.550;2023-02-20T14:37:17;102008.22;;;17.51;88.14
32237;BME280;18726;44.732;10.550;2023-02-20T14:40:46;102014.63;;;17.40;89.08
32237;BME280;18726;44.732;10.550;2023-02-20T14:43:57;102002.75;;;17.16;90.74
32237;BME280;18726;44.732;10.550;2023-02-20T14:47:06;102002.41;;;17.37;96.72
32237;BME280;18726;44.732;10.550;2023-02-20T14:53:29;102006.22;;;17.68;93.35
32237;BME280;18726;44.732;10.550;2023-02-20T14:56:32;102002.16;;;17.81;94.67
32237;BME280;18726;44.732;10.550;2023-02-20T14:59:37;101996.31;;;17.82;89.97
32237;BME280;18726;44.732;10.550;2023-02-20T15:02:44;102007.50;;;17.74;89.31
32237;BME280;18726;44.732;10.550;2023-02-20T15:05:49;101999.34;;;17.77;95.53
32237;BME280;18726;44.732;10.550;2023-02-20T15:08:57;101993.84;;;17.77;92.90
32237;BME280;18726;44.732;10.550;2023-02-20T15:12:02;101987.97;;;17.79;93.11
32237;BME280;18726;44.732;10.550;2023-02-20T15:15:12;101982.06;;;17.77;92.22
32237;BME280;18726;44.732;10.550;2023-02-20T15:21:39;101984.22;;;17.68;93.19
32237;BME280;18726;44.732;10.550;2023-02-20T15:24:44;101981.59;;;17.55;87.65
32237;BME280;18726;44.732;10.550;2023-02-20T15:28:06;101981.91;;;17.31;89.25
32237;BME280;18726;44.732;10.550;2023-02-20T15:34:21;101977.03;;;17.25;97.15
32237;BME280;18726;44.732;10.550;2023-02-20T15:37:28;101974.56;;;17.19;96.77
32237;BME280;18726;44.732;10.550;2023-02-20T15:40:33;101971.66;;;17.12;95.87
32237;BME280;18726;44.732;10.550;2023-02-20T15:43:37;101975.47;;;17.08;96.86
32237;BME280;18726;44.732;10.550;2023-02-20T15:46:40;101980.53;;;17.06;100.00
32237;BME280;18726;44.732;10.550;2023-02-20T15:49:44;101981.28;;;17.03;100.00
32237;BME280;18726;44.732;10.550;2023-02-20T15:52:48;101974.19;;;17.02;100.00
32237;BME280;18726;44.732;10.550;2023-02-20T15:55:53;101975.63;;;16.96;100.00
32237;BME280;18726;44.732;10.550;2023-02-20T15:59:03;101962.97;;;16.91;100.00
32237;BME280;18726;44.732;10.550;2023-02-20T16:02:17;101969.09;;;16.84;100.00
32237;BME280;18726;44.732;10.550;2023-02-20T16:05:25;101970.06;;;16.76;100.00
32237;BME280;18726;44.732;10.550;2023-02-20T16:08:29;101964.72;;;16.64;100.00
32237;BME280;18726;44.732;10.550;2023-02-20T16:11:37;101970.50;;;16.47;100.00
32237;BME280;18726;44.732;10.550;2023-02-20T16:14:41;101970.00;;;16.26;100.00
32237;BME280;18726;44.732;10.550;2023-02-20T16:17:45;101969.94;;;15.94;100.00
32237;BME280;18726;44.732;10.550;2023-02-20T16:20:49;101975.28;;;15.87;100.00
32237;BME280;18726;44.732;10.550;2023-02-20T16:23:53;101970.47;;;15.84;100.00
32237;BME280;18726;44.732;10.550;2023-02-20T16:26:57;101972.56;;;15.75;100.00
32237;BME280;18726;44.732;10.550;2023-02-20T16:30:01;101967.59;;;15.65;100.00
32237;BME280;18726;44.732;10.550;2023-02-20T16:33:20;101972.41;;;15.56;100.00
32237;BME280;18726;44.732;10.550;2023-02-20T16:36:24;101972.66;;;15.50;100.00
32237;BME280;18726;44.732;10.550;2023-02-20T16:39:27;101974.03;;;15.44;100.00
32237;BME280;18726;44.732;10.550;2023-02-20T16:42:36;101975.41;;;15.38;100.00
32237;BME280;18726;44.732;10.550;2023-02-20T16:45:41;101972.22;;;15.36;100.00
32237;BME280;18726;44.732;10.550;2023-02-20T16:48:48;101968.84;;;15.27;100.00
32237;BME280;18726;44.732;10.550;2023-02-20T16:51:52;101974.13;;;15.20;100.00
32237;BME280;18726;44.732;10.550;2023-02-20T16:55:06;101975.16;;;15.15;100.00
32237;BME280;18726;44.732;10.550;2023-02-20T16:58:14;101979.59;;;15.08;100.00
32237;BME280;18726;44.732;10.550;2023-02-20T17:01:17;101975.75;;;14.97;100.00
32237;BME280;18726;44.732;10.550;2023-02-20T17:04:21;101975.06;;;14.88;100.00
32237;BME280;18726;44.732;10.550;2023-02-20T17:07:25;101975.31;;;14.82;100.00
32237;BME280;18726;44.732;10.550;2023-02-20T17:10:29;101982.59;;;14.78;100.00
32237;BME280;18726;44.732;10.550;2023-02-20T17:13:33;101977.34;;;14.73;100.00
32237;BME280;18726;44.732;10.550;2023-02-20T17:16:37;101967.13;;;14.70;100.00
32237;BME280;18726;44.732;10.550;2023-02-20T17:27:13;101990.34;;;14.52;100.00
32237;BME280;18726;44.732;10.550;2023-02-20T17:30:19;101996.50;;;14.49;100.00
32237;BME280;18726;44.732;10.550;2023-02-20T17:33:23;101999.91;;;14.46;100.00
32237;BME280;18726;44.732;10.550;2023-02-20T17:36:27;102006.72;;;14.40;100.00
32237;BME280;18726;44.732;10.550;2023-02-20T17:39:30;102005.56;;;14.29;100.00
32237;BME280;18726;44.732;10.550;2023-02-20T17:42:33;102005.53;;;14.16;100.00
32237;BME280;18726;44.732;10.550;2023-02-20T17:45:36;102018.97;;;14.09;100.00
32237;BME280;18726;44.732;10.550;2023-02-20T17:48:40;102025.47;;;13.84;100.00
32237;BME280;18726;44.732;10.550;2023-02-20T17:51:45;102021.34;;;13.57;100.00
32237;BME280;18726;44.732;10.550;2023-02-20T17:54:50;102017.69;;;13.32;100.00
32237;BME280;18726;44.732;10.550;2023-02-20T17:57:54;102015.75;;;13.33;100.00
32237;BME280;18726;44.732;10.550;2023-02-20T18:00:58;102016.25;;;13.56;100.00
32237;BME280;18726;44.732;10.550;2023-02-20T18:04:02;102016.47;;;13.63;100.00
32237;BME280;18726;44.732;10.550;2023-02-20T18:07:09;102016.47;;;13.63;100.00
32237;BME280;18726;44.732;10.550;2023-02-20T18:10:13;102013.94;;;13.58;100.00
32237;BME280;18726;44.732;10.550;2023-02-20T18:13:16;102019.69;;;13.44;100.00
32237;BME280;18726;44.732;10.550;2023-02-20T18:16:22;102018.16;;;13.34;100.00
32237;BME280;18726;44.732;10.550;2023-02-20T18:19:27;102016.50;;;13.12;100.00
32237;BME280;18726;44.732;10.550;2023-02-20T18:22:31;102015.53;;;12.88;100.00